Time;durP1;ratioP1;P1;durP2;ratioP2;P2;SDS_P1;SDS_P2;PMS_P1;PMS_P2;Temp;Humidity;BMP_temperature;BMP_pressure;BME280_temperature;BME280_humidity;BME280_pressure;Samples;Min_cycle;Max_cycle;Signal;HPM_P1;HPM_P2
2021/09/25 00:01:49;;;;;;;1.60;1.10;;;9.80;99.90;;;;;;5072672;28;20048;-93
2021/09/25 00:04:15;;;;;;;2.28;1.40;;;9.90;99.90;;;;;;5058319;28;20043;-91
2021/09/25 00:06:41;;;;;;;2.50;1.33;;;9.90;99.90;;;;;;5056305;28;20127;-91
2021/09/25 00:09:07;;;;;;;2.67;1.60;;;9.90;99.90;;;;;;5072045;28;20025;-92
2021/09/25 00:11:33;;;;;;;2.85;1.50;;;9.90;99.90;;;;;;5071218;28;20120;-91
2021/09/25 00:13:59;;;;;;;3.67;1.40;;;9.90;99.90;;;;;;5070979;28;20029;-90
2021/09/25 00:16:27;;;;;;;1.70;1.10;;;10.00;99.90;;;;;;5071283;28;20380;-91
2021/09/25 00:18:54;;;;;;;1.48;1.20;;;10.00;99.90;;;;;;5070922;28;20059;-91
2021/09/25 00:21:21;;;;;;;3.47;1.30;;;10.00;99.90;;;;;;5058461;28;20048;-91
2021/09/25 00:23:48;;;;;;;2.83;1.27;;;10.00;99.90;;;;;;5038800;28;20471;-92
2021/09/25 00:26:14;;;;;;;2.78;1.27;;;10.00;99.90;;;;;;5055136;28;20441;-92
2021/09/25 00:28:40;;;;;;;1.67;1.10;;;10.10;99.90;;;;;;5056765;28;20064;-91
2021/09/25 00:31:06;;;;;;;2.25;1.35;;;10.10;99.90;;;;;;5071611;28;20115;-93
2021/09/25 00:33:32;;;;;;;1.70;1.20;;;10.10;99.90;;;;;;5072094;28;20392;-94
2021/09/25 00:36:01;;;;;;;2.85;1.33;;;10.10;99.90;;;;;;5054910;28;20026;-92
2021/09/25 00:38:27;;;;;;;2.75;1.30;;;10.10;99.90;;;;;;5071692;28;20029;-91
2021/09/25 00:40:54;;;;;;;1.92;1.13;;;10.00;99.90;;;;;;5037824;28;20128;-92
2021/09/25 00:43:21;;;;;;;3.78;1.20;;;10.00;99.90;;;;;;5072718;28;20029;-93
2021/09/25 00:45:47;;;;;;;1.52;1.10;;;10.00;99.90;;;;;;5055629;28;20032;-90
2021/09/25 00:48:15;;;;;;;2.55;1.20;;;10.00;99.90;;;;;;5079307;28;20025;-90
2021/09/25 00:50:41;;;;;;;1.52;0.88;;;10.00;99.90;;;;;;5076423;28;20055;-91
2021/09/25 00:53:08;;;;;;;2.85;1.10;;;10.00;99.90;;;;;;5076084;28;20025;-93
2021/09/25 00:55:34;;;;;;;1.15;1.08;;;10.00;99.90;;;;;;5090596;28;20017;-91
2021/09/25 00:58:03;;;;;;;2.72;1.13;;;10.00;99.90;;;;;;5073767;28;20053;-90
2021/09/25 01:00:31;;;;;;;2.50;1.03;;;10.00;99.90;;;;;;5066162;28;20025;-91
2021/09/25 01:02:58;;;;;;;3.10;1.05;;;10.00;99.90;;;;;;5055355;28;20045;-92
2021/09/25 01:05:24;;;;;;;1.67;0.95;;;10.00;99.90;;;;;;5055673;28;20036;-91
2021/09/25 01:07:51;;;;;;;1.17;0.88;;;9.90;99.90;;;;;;5055195;28;20044;-93
2021/09/25 01:10:19;;;;;;;2.85;1.20;;;10.00;99.90;;;;;;5070671;28;20025;-91
2021/09/25 01:12:46;;;;;;;2.63;1.25;;;9.90;99.90;;;;;;5070661;28;20041;-91
2021/09/25 01:15:12;;;;;;;3.65;1.30;;;9.90;99.90;;;;;;5070739;28;20033;-93
2021/09/25 01:17:39;;;;;;;1.83;1.10;;;9.90;99.90;;;;;;5069911;28;20057;-92
2021/09/25 01:20:08;;;;;;;2.95;1.45;;;9.90;99.90;;;;;;5054254;28;20034;-92
2021/09/25 01:22:34;;;;;;;3.78;1.17;;;9.90;99.90;;;;;;5054090;28;20061;-92
2021/09/25 01:25:00;;;;;;;3.53;1.27;;;9.80;99.90;;;;;;5037193;28;20458;-93
2021/09/25 01:27:26;;;;;;;1.85;1.15;;;9.80;99.90;;;;;;5069695;28;20086;-91
2021/09/25 01:29:53;;;;;;;1.50;0.95;;;9.80;99.90;;;;;;5053921;28;20040;-92
2021/09/25 01:32:19;;;;;;;2.55;1.10;;;9.80;99.90;;;;;;5052736;28;20535;-91
2021/09/25 01:34:46;;;;;;;2.40;1.05;;;9.70;99.90;;;;;;5070215;28;20068;-91
2021/09/25 01:37:12;;;;;;;2.28;1.17;;;9.70;99.90;;;;;;5072526;28;20104;-92
2021/09/25 01:39:40;;;;;;;2.10;0.98;;;9.70;99.90;;;;;;5056670;28;20029;-91
2021/09/25 01:42:06;;;;;;;2.40;0.98;;;9.70;99.90;;;;;;5072220;28;20025;-90
2021/09/25 01:44:32;;;;;;;2.40;1.23;;;9.70;99.90;;;;;;5050740;28;20023;-89
2021/09/25 01:46:59;;;;;;;2.33;1.00;;;9.70;99.90;;;;;;5093867;28;20037;-90
2021/09/25 01:49:25;;;;;;;2.65;1.40;;;9.70;99.90;;;;;;5077400;28;20092;-91
2021/09/25 01:51:52;;;;;;;1.67;1.15;;;9.80;99.90;;;;;;5093041;28;20027;-88
2021/09/25 01:54:19;;;;;;;2.83;1.23;;;9.80;99.90;;;;;;5091905;28;20025;-86
2021/09/25 01:56:45;;;;;;;1.45;0.93;;;9.80;99.90;;;;;;5090290;28;20112;-86
2021/09/25 01:59:11;;;;;;;2.03;1.20;;;9.80;99.90;;;;;;5069455;28;20025;-89
2021/09/25 02:01:38;;;;;;;1.98;1.38;;;9.80;99.90;;;;;;5063514;28;20043;-91
2021/09/25 02:04:06;;;;;;;3.25;1.33;;;9.80;99.90;;;;;;5073679;28;20037;-90
2021/09/25 02:06:32;;;;;;;2.28;1.00;;;9.90;99.90;;;;;;5059432;28;20107;-90
2021/09/25 02:08:58;;;;;;;2.15;1.00;;;9.90;99.90;;;;;;5073983;28;20055;-90
2021/09/25 02:11:25;;;;;;;2.97;1.17;;;9.90;99.90;;;;;;5073148;28;20111;-89
2021/09/25 02:13:54;;;;;;;2.10;1.00;;;9.90;99.90;;;;;;5057924;28;20029;-93
2021/09/25 02:16:19;;;;;;;1.30;1.05;;;10.00;99.90;;;;;;5040164;28;20376;-90
2021/09/25 02:18:45;;;;;;;2.33;1.10;;;10.00;99.90;;;;;;5073420;28;20103;-90
2021/09/25 02:21:12;;;;;;;3.13;1.10;;;10.00;99.90;;;;;;5058181;28;20025;-91
2021/09/25 02:23:37;;;;;;;1.48;1.00;;;10.00;99.90;;;;;;5073417;28;20119;-91
2021/09/25 02:26:06;;;;;;;2.22;1.00;;;10.00;99.90;;;;;;5074030;28;20071;-89
2021/09/25 02:28:32;;;;;;;2.75;1.23;;;10.10;99.90;;;;;;5073258;28;20032;-89
2021/09/25 02:30:59;;;;;;;2.08;1.10;;;10.10;99.90;;;;;;5073039;28;20029;-91
2021/09/25 02:33:25;;;;;;;1.10;0.90;;;10.10;99.90;;;;;;5072993;28;20029;-93
2021/09/25 02:35:52;;;;;;;1.50;0.90;;;10.10;99.90;;;;;;5072837;28;20032;-90
2021/09/25 02:38:18;;;;;;;3.70;1.25;;;10.10;99.90;;;;;;5072176;28;20425;-91
2021/09/25 02:40:44;;;;;;;2.13;1.02;;;10.10;99.90;;;;;;5072490;28;20104;-92
2021/09/25 02:43:12;;;;;;;1.67;1.10;;;10.20;99.90;;;;;;5055159;28;20431;-92
2021/09/25 02:45:38;;;;;;;4.03;1.23;;;10.20;99.90;;;;;;5071784;28;20125;-91
2021/09/25 02:48:04;;;;;;;1.92;1.30;;;10.20;99.90;;;;;;5054947;28;20033;-89
2021/09/25 02:50:31;;;;;;;1.95;1.25;;;10.20;99.90;;;;;;5071429;28;20082;-90
2021/09/25 02:52:56;;;;;;;3.22;1.73;;;10.20;99.90;;;;;;5071517;28;20053;-91
2021/09/25 02:55:22;;;;;;;2.08;1.42;;;10.20;99.90;;;;;;5071823;28;20060;-91
2021/09/25 02:57:49;;;;;;;3.85;1.60;;;10.20;99.90;;;;;;5071942;28;20025;-91
2021/09/25 03:00:18;;;;;;;4.53;3.50;;;10.20;99.90;;;;;;5038609;28;20061;-91
2021/09/25 03:02:44;;;;;;;5.72;3.13;;;10.20;99.90;;;;;;5068066;28;20080;-89
2021/09/25 03:05:11;;;;;;;5.28;2.20;;;10.30;99.90;;;;;;5054155;28;20025;-91
2021/09/25 03:07:39;;;;;;;2.90;2.10;;;10.30;99.90;;;;;;5053855;28;20083;-90
2021/09/25 03:10:06;;;;;;;2.10;1.90;;;10.30;99.90;;;;;;5062420;28;20025;-90
2021/09/25 03:12:32;;;;;;;3.15;1.80;;;10.40;99.90;;;;;;5053580;28;20025;-90
2021/09/25 03:14:59;;;;;;;2.83;1.88;;;10.40;99.90;;;;;;5056175;28;20028;-90
2021/09/25 03:17:26;;;;;;;3.95;1.70;;;10.30;99.90;;;;;;5054445;28;20046;-92
2021/09/25 03:19:52;;;;;;;2.60;1.88;;;10.30;99.90;;;;;;5055169;28;20101;-90
2021/09/25 03:22:19;;;;;;;2.03;1.50;;;10.30;99.90;;;;;;5054503;28;20455;-89
2021/09/25 03:24:46;;;;;;;3.22;1.42;;;10.30;99.90;;;;;;5055248;28;20052;-90
2021/09/25 03:27:12;;;;;;;2.97;1.58;;;10.30;99.90;;;;;;5066735;28;20050;-90
2021/09/25 03:29:38;;;;;;;2.63;1.50;;;10.20;99.90;;;;;;5056425;28;20111;-87
2021/09/25 03:32:05;;;;;;;1.98;1.20;;;10.20;99.90;;;;;;5072156;28;20025;-87
2021/09/25 03:34:36;;;;;;;3.22;1.45;;;10.20;99.90;;;;;;5055592;28;20032;-91
2021/09/25 03:37:03;;;;;;;1.52;1.00;;;10.20;99.90;;;;;;5054454;28;20049;-88
2021/09/25 03:39:29;;;;;;;3.50;1.35;;;10.30;99.90;;;;;;5043996;28;20021;-90
2021/09/25 03:41:54;;;;;;;1.33;1.10;;;10.20;99.90;;;;;;5052036;28;20443;-89
2021/09/25 03:44:20;;;;;;;2.67;1.08;;;10.30;99.90;;;;;;5054303;28;20104;-90
2021/09/25 03:46:46;;;;;;;2.42;1.08;;;10.30;99.90;;;;;;5053374;28;20033;-89
2021/09/25 03:49:12;;;;;;;2.15;1.17;;;10.30;99.90;;;;;;5054921;28;20021;-91
2021/09/25 03:51:37;;;;;;;2.22;1.20;;;10.30;99.90;;;;;;5053707;28;20033;-89
2021/09/25 03:54:03;;;;;;;1.20;1.08;;;10.40;99.90;;;;;;5050565;28;20076;-90
2021/09/25 03:56:29;;;;;;;1.50;1.20;;;10.40;99.90;;;;;;5053151;28;20470;-91
2021/09/25 03:58:54;;;;;;;2.95;1.30;;;10.40;99.90;;;;;;5054071;28;20467;-89
2021/09/25 04:01:21;;;;;;;1.35;1.10;;;10.40;99.90;;;;;;5070172;28;20059;-89
2021/09/25 04:03:47;;;;;;;1.70;0.98;;;10.50;99.90;;;;;;5054252;28;20037;-88
2021/09/25 04:06:12;;;;;;;1.05;0.98;;;10.50;99.90;;;;;;5070470;28;20113;-90
2021/09/25 04:08:38;;;;;;;2.47;1.30;;;10.50;99.90;;;;;;5070157;28;20021;-88
2021/09/25 04:11:04;;;;;;;3.85;1.25;;;10.50;99.90;;;;;;5070212;28;20033;-89
2021/09/25 04:13:29;;;;;;;2.45;1.17;;;10.50;99.90;;;;;;5070283;28;20021;-89
2021/09/25 04:15:55;;;;;;;1.70;1.30;;;10.50;99.90;;;;;;5073363;28;20043;-88
2021/09/25 04:18:21;;;;;;;2.63;1.30;;;10.60;99.90;;;;;;5074618;28;20448;-89
2021/09/25 04:20:47;;;;;;;2.30;1.10;;;10.60;99.90;;;;;;5072353;28;20029;-86
2021/09/25 04:23:12;;;;;;;1.33;1.10;;;10.60;99.90;;;;;;5073952;28;20029;-86
2021/09/25 04:25:39;;;;;;;2.25;1.20;;;10.70;99.90;;;;;;5090914;28;20025;-90
2021/09/25 04:28:09;;;;;;;2.80;1.50;;;10.70;99.90;;;;;;5057513;28;20068;-93
2021/09/25 04:30:39;;;;;;;2.72;1.20;;;10.70;99.90;;;;;;5054448;28;20471;-91
2021/09/25 04:33:10;;;;;;;1.77;1.15;;;10.70;99.90;;;;;;5052968;28;20494;-92
2021/09/25 04:35:37;;;;;;;2.22;1.10;;;10.80;99.90;;;;;;5059813;28;20030;-93
2021/09/25 04:38:06;;;;;;;1.90;1.02;;;10.80;99.90;;;;;;5054220;28;20032;-93
2021/09/25 04:40:35;;;;;;;3.42;1.45;;;10.80;99.90;;;;;;5054871;28;20025;-90
2021/09/25 04:43:01;;;;;;;1.63;1.08;;;10.90;99.90;;;;;;5060329;28;20028;-95
2021/09/25 04:45:35;;;;;;;1.50;1.00;;;10.90;99.90;;;;;;5067273;28;20021;-91
2021/09/25 04:48:06;;;;;;;1.77;1.30;;;11.00;99.90;;;;;;5056871;28;20037;-92
2021/09/25 04:50:33;;;;;;;1.85;1.20;;;11.00;99.90;;;;;;5056445;28;20025;-92
2021/09/25 04:53:11;;;;;;;4.65;1.30;;;11.00;99.90;;;;;;5057290;28;20047;-91
2021/09/25 04:55:40;;;;;;;1.60;0.98;;;11.10;99.90;;;;;;5056636;28;20056;-92
2021/09/25 04:58:06;;;;;;;2.30;1.23;;;11.10;99.90;;;;;;5059019;28;20025;-93
2021/09/25 05:00:34;;;;;;;3.15;1.30;;;11.10;99.90;;;;;;5062857;28;20030;-93
2021/09/25 05:03:00;;;;;;;2.55;1.10;;;11.20;99.90;;;;;;5042815;28;20061;-92
2021/09/25 05:05:26;;;;;;;2.42;1.23;;;11.20;99.90;;;;;;5049127;28;20090;-90
2021/09/25 05:07:52;;;;;;;1.55;1.08;;;11.20;99.90;;;;;;5054660;28;20036;-91
2021/09/25 05:10:21;;;;;;;1.98;1.25;;;11.30;99.90;;;;;;5060717;28;20386;-90
2021/09/25 05:12:47;;;;;;;2.20;1.42;;;11.30;99.90;;;;;;5058414;28;20028;-92
2021/09/25 05:15:16;;;;;;;1.77;1.17;;;11.30;99.90;;;;;;5058375;28;20025;-91
2021/09/25 05:17:42;;;;;;;1.63;1.20;;;11.30;99.90;;;;;;5052236;28;20021;-90
2021/09/25 05:20:14;;;;;;;1.25;1.10;;;11.40;99.90;;;;;;5056884;28;20033;-89
2021/09/25 05:22:40;;;;;;;1.67;0.95;;;11.40;99.90;;;;;;5053267;28;20052;-90
2021/09/25 05:25:06;;;;;;;2.97;1.17;;;11.50;99.90;;;;;;5052932;28;20052;-90
2021/09/25 05:27:33;;;;;;;1.95;1.20;;;11.50;99.90;;;;;;5028678;28;20029;-91
2021/09/25 05:30:03;;;;;;;3.83;1.10;;;11.60;99.90;;;;;;5039361;28;20049;-90
2021/09/25 05:32:29;;;;;;;1.48;1.00;;;11.70;99.90;;;;;;5053625;28;20119;-90
2021/09/25 05:34:54;;;;;;;2.05;1.20;;;11.80;99.90;;;;;;5058637;28;20545;-90
2021/09/25 05:37:20;;;;;;;2.85;1.30;;;11.90;99.90;;;;;;5057287;28;20025;-90
2021/09/25 05:39:47;;;;;;;2.05;1.20;;;12.00;99.90;;;;;;5056506;28;20028;-91
2021/09/25 05:42:14;;;;;;;2.35;1.27;;;12.00;99.90;;;;;;5057570;28;20072;-91
2021/09/25 05:44:44;;;;;;;2.17;1.02;;;12.10;99.90;;;;;;5057609;28;20037;-91
2021/09/25 05:47:12;;;;;;;1.77;1.10;;;12.10;99.90;;;;;;5061087;28;20089;-90
2021/09/25 05:49:39;;;;;;;2.45;1.33;;;12.10;99.90;;;;;;5060893;28;20048;-91
2021/09/25 05:52:08;;;;;;;2.97;0.95;;;12.20;99.90;;;;;;5075224;28;20384;-92
2021/09/25 05:54:35;;;;;;;1.30;0.93;;;12.20;99.90;;;;;;5058211;28;20025;-91
2021/09/25 05:57:00;;;;;;;2.15;0.80;;;12.20;99.90;;;;;;5074581;28;20049;-94
2021/09/25 05:59:26;;;;;;;1.77;1.20;;;12.30;99.90;;;;;;5074147;28;20079;-90
2021/09/25 06:01:52;;;;;;;1.00;0.90;;;12.40;99.90;;;;;;5073189;28;20049;-90
2021/09/25 06:04:20;;;;;;;1.90;1.02;;;12.50;99.90;;;;;;5057959;28;20107;-90
2021/09/25 06:06:46;;;;;;;2.55;0.73;;;12.60;99.90;;;;;;5073106;28;20487;-89
2021/09/25 06:09:12;;;;;;;2.03;0.85;;;12.70;99.90;;;;;;5073332;28;20029;-91
2021/09/25 06:11:37;;;;;;;1.17;0.80;;;12.90;99.90;;;;;;5058077;28;20029;-93
2021/09/25 06:14:03;;;;;;;2.30;1.30;;;12.90;99.90;;;;;;5057746;28;20033;-90
2021/09/25 06:16:30;;;;;;;1.48;1.00;;;13.00;99.90;;;;;;5060731;28;20021;-90
2021/09/25 06:18:55;;;;;;;2.22;1.40;;;13.00;99.90;;;;;;5074094;28;20036;-92
2021/09/25 06:21:22;;;;;;;1.60;1.20;;;13.00;99.90;;;;;;5075511;28;20029;-92
2021/09/25 06:23:48;;;;;;;3.03;1.20;;;13.00;99.90;;;;;;5073534;28;20486;-91
2021/09/25 06:26:15;;;;;;;1.55;1.13;;;13.00;99.90;;;;;;5057995;28;20170;-92
2021/09/25 06:28:41;;;;;;;1.52;0.93;;;13.10;99.90;;;;;;5058438;28;20384;-92
2021/09/25 06:31:10;;;;;;;1.30;0.98;;;13.30;99.90;;;;;;5075006;28;20033;-92
2021/09/25 06:33:35;;;;;;;1.45;1.15;;;13.50;99.90;;;;;;5075595;28;20032;-91
2021/09/25 06:36:01;;;;;;;2.67;1.20;;;13.80;99.90;;;;;;5075769;28;20020;-92
2021/09/25 06:38:27;;;;;;;3.53;1.00;;;14.00;99.90;;;;;;5074952;28;20055;-92
2021/09/25 06:40:53;;;;;;;3.42;1.33;;;14.30;99.90;;;;;;5073830;28;20120;-91
2021/09/25 06:43:18;;;;;;;1.55;1.13;;;14.50;99.90;;;;;;5057539;28;20029;-88
2021/09/25 06:45:44;;;;;;;2.45;1.30;;;14.60;99.90;;;;;;5056428;28;20035;-90
2021/09/25 06:48:11;;;;;;;35.10;21.85;;;14.70;99.90;;;;;;5072364;28;20360;-90
2021/09/25 06:50:37;;;;;;;15.13;10.18;;;14.70;99.90;;;;;;5058127;28;20085;-92
2021/09/25 06:53:05;;;;;;;8.60;5.95;;;14.70;99.90;;;;;;5057824;28;20375;-88
2021/09/25 06:55:31;;;;;;;7.30;3.83;;;14.70;99.90;;;;;;5056478;28;20471;-91
2021/09/25 06:57:58;;;;;;;5.97;3.10;;;14.70;99.50;;;;;;5058162;28;20025;-89
2021/09/25 07:00:23;;;;;;;3.30;2.40;;;14.60;97.40;;;;;;5055853;28;20383;-88
2021/09/25 07:02:49;;;;;;;3.25;2.28;;;14.50;97.50;;;;;;5073210;28;20045;-90
2021/09/25 07:05:16;;;;;;;4.95;2.30;;;14.50;98.00;;;;;;5074637;28;20033;-91
2021/09/25 07:07:42;;;;;;;3.50;2.00;;;14.50;98.80;;;;;;5072155;28;20048;-90
2021/09/25 07:10:14;;;;;;;2.83;2.33;;;14.40;98.70;;;;;;5058338;28;20075;-89
2021/09/25 07:12:42;;;;;;;4.43;2.28;;;14.40;97.90;;;;;;5077751;28;20029;-92
2021/09/25 07:15:08;;;;;;;2.95;2.60;;;14.20;95.30;;;;;;5063875;28;20132;-91
2021/09/25 07:17:34;;;;;;;2.75;2.40;;;14.10;94.70;;;;;;5088346;28;20021;-86
2021/09/25 07:20:00;;;;;;;3.58;2.63;;;13.90;95.90;;;;;;5077598;28;20020;-90
2021/09/25 07:22:25;;;;;;;4.05;2.20;;;13.90;97.00;;;;;;5088395;28;20025;-87
2021/09/25 07:24:54;;;;;;;2.75;2.40;;;14.00;98.10;;;;;;5078621;28;20082;-84
2021/09/25 07:27:21;;;;;;;2.28;2.08;;;14.10;98.10;;;;;;5075464;28;20029;-85
2021/09/25 07:29:49;;;;;;;3.90;2.30;;;14.30;99.40;;;;;;5074940;28;20029;-85
2021/09/25 07:32:16;;;;;;;3.35;2.85;;;14.50;97.80;;;;;;5093836;28;20044;-85
2021/09/25 07:34:43;;;;;;;4.15;2.60;;;14.60;95.60;;;;;;5075266;28;20029;-85
2021/09/25 07:37:10;;;;;;;4.07;2.60;;;14.70;97.60;;;;;;5055549;28;20056;-85
2021/09/25 07:39:36;;;;;;;2.35;2.15;;;14.90;96.50;;;;;;5037513;28;20036;-86
2021/09/25 07:42:03;;;;;;;3.25;2.38;;;15.00;96.20;;;;;;5056066;28;20446;-85
2021/09/25 07:44:28;;;;;;;2.33;2.13;;;15.20;95.20;;;;;;5033667;28;20029;-84
2021/09/25 07:46:54;;;;;;;2.63;2.00;;;15.20;94.40;;;;;;5050581;28;20402;-84
2021/09/25 07:49:21;;;;;;;4.40;2.47;;;15.10;94.10;;;;;;5036478;28;20029;-89
2021/09/25 07:51:47;;;;;;;3.92;2.40;;;15.10;92.50;;;;;;5034121;28;20031;-87
2021/09/25 07:54:14;;;;;;;3.15;2.50;;;15.00;92.40;;;;;;5033692;28;20112;-87
2021/09/25 07:56:53;;;;;;;3.63;2.58;;;15.00;93.00;;;;;;5053308;28;20029;-89
2021/09/25 07:59:20;;;;;;;3.17;2.20;;;15.00;91.70;;;;;;5034978;28;20021;-89
2021/09/25 08:01:46;;;;;;;2.78;2.10;;;15.10;94.50;;;;;;5034351;28;20049;-92
2021/09/25 08:04:15;;;;;;;2.65;2.13;;;15.20;94.50;;;;;;5033994;28;20068;-86
2021/09/25 08:06:41;;;;;;;2.92;2.20;;;15.30;91.60;;;;;;5048598;28;20037;-85
2021/09/25 08:09:07;;;;;;;3.15;2.10;;;15.20;90.40;;;;;;5033918;28;20430;-88
2021/09/25 08:11:33;;;;;;;1.73;1.63;;;15.20;90.20;;;;;;5049621;28;20037;-84
2021/09/25 08:13:59;;;;;;;2.00;1.88;;;15.20;90.80;;;;;;5053178;28;20091;-85
2021/09/25 08:16:24;;;;;;;2.50;2.00;;;15.10;91.10;;;;;;5049254;28;20709;-84
2021/09/25 08:18:51;;;;;;;1.70;1.60;;;15.10;90.70;;;;;;5048755;28;20037;-89
2021/09/25 08:21:17;;;;;;;2.42;2.22;;;15.10;90.90;;;;;;5049040;28;20135;-87
2021/09/25 08:23:43;;;;;;;2.97;2.33;;;15.00;90.30;;;;;;5032872;28;20033;-90
2021/09/25 08:26:09;;;;;;;2.65;2.17;;;15.00;90.90;;;;;;5032629;28;20087;-86
2021/09/25 08:28:35;;;;;;;2.30;2.10;;;15.00;91.50;;;;;;5050785;28;20053;-92
2021/09/25 08:34:33;;;;;;;3.13;2.00;;;15.10;90.40;;;;;;5035561;28;20467;-89
2021/09/25 08:36:59;;;;;;;3.60;2.50;;;15.10;89.00;;;;;;5067357;28;20037;-87
2021/09/25 08:39:25;;;;;;;2.47;2.28;;;15.10;91.70;;;;;;5075773;28;20058;-88
2021/09/25 08:42:18;;;;;;;4.15;2.20;;;15.30;90.90;;;;;;5074854;28;20024;-88
2021/09/25 08:44:50;;;;;;;2.20;2.00;;;15.40;87.40;;;;;;5057158;28;20028;-88
2021/09/25 09:07:34;;;;;;;2.53;1.95;;;16.50;89.80;;;;;;5043756;28;20077;-88
2021/09/25 09:09:59;;;;;;;2.53;2.00;;;16.80;87.00;;;;;;5033358;28;20037;-89
2021/09/25 09:12:28;;;;;;;4.00;2.10;;;17.20;84.90;;;;;;5034323;28;20075;-87
2021/09/25 09:15:04;;;;;;;2.55;2.00;;;17.30;81.70;;;;;;5051013;28;20538;-89
2021/09/25 10:13:17;;;;;;;1.17;0.88;;;16.90;71.70;;;;;;5099825;27;20096;-88
2021/09/25 10:15:44;;;;;;;2.30;1.20;;;16.80;75.60;;;;;;5095935;28;20031;-89
2021/09/25 10:18:10;;;;;;;2.40;1.05;;;16.80;76.00;;;;;;5097517;28;20025;-90
2021/09/25 10:31:27;;;;;;;2.38;0.90;;;17.20;72.90;;;;;;5117721;28;20027;-88
2021/09/25 10:34:06;;;;;;;2.35;1.30;;;17.20;72.80;;;;;;5115996;28;20055;-89
2021/09/25 10:44:04;;;;;;;1.70;0.85;;;16.90;71.90;;;;;;5034812;28;20075;-88
2021/09/25 10:54:38;;;;;;;1.83;1.00;;;16.70;72.10;;;;;;5035777;28;20034;-89
2021/09/25 11:00:54;;;;;;;1.77;1.00;;;16.70;73.10;;;;;;5076034;28;20044;-89
2021/09/25 11:10:47;;;;;;;2.22;1.10;;;17.50;71.50;;;;;;5075650;28;20131;-88
2021/09/25 11:13:13;;;;;;;2.83;1.00;;;17.90;71.20;;;;;;5062881;28;20032;-90
2021/09/25 11:15:41;;;;;;;2.25;1.05;;;18.30;71.40;;;;;;5081904;28;20352;-89
2021/09/25 11:18:27;;;;;;;1.60;0.93;;;18.50;69.30;;;;;;5062969;28;20123;-91
2021/09/25 11:38:13;;;;;;;2.67;1.10;;;18.30;66.00;;;;;;5116874;28;20023;-90
2021/09/25 11:48:23;;;;;;;2.72;1.13;;;17.60;67.30;;;;;;5099558;28;20023;-91
2021/09/25 12:30:46;;;;;;;1.48;0.98;;;18.30;66.60;;;;;;5111881;27;20423;-87
2021/09/25 12:33:16;;;;;;;2.22;1.10;;;18.60;67.80;;;;;;5115792;28;20107;-88
2021/09/25 12:35:42;;;;;;;4.15;1.30;;;19.00;67.40;;;;;;5097533;28;20074;-87
2021/09/25 12:38:13;;;;;;;3.33;1.20;;;19.30;65.20;;;;;;5115294;28;20055;-88
2021/09/25 12:40:42;;;;;;;2.42;1.20;;;19.40;64.30;;;;;;5099843;28;20030;-87
2021/09/25 12:43:09;;;;;;;2.28;1.02;;;19.30;63.00;;;;;;5120246;28;20031;-87
2021/09/25 12:45:37;;;;;;;1.65;0.88;;;19.10;62.60;;;;;;5101674;28;20064;-87
2021/09/25 12:48:15;;;;;;;2.33;1.10;;;18.90;63.50;;;;;;5098916;28;20038;-87
2021/09/25 12:50:48;;;;;;;1.50;0.88;;;18.70;62.80;;;;;;5100008;28;20023;-88
2021/09/25 12:53:17;;;;;;;3.63;1.15;;;18.60;62.60;;;;;;5116291;28;20028;-87
2021/09/25 12:55:42;;;;;;;1.98;1.10;;;18.40;63.10;;;;;;5118112;28;20042;-89
2021/09/25 12:58:09;;;;;;;3.08;0.80;;;18.20;63.10;;;;;;5117649;28;20061;-87
2021/09/25 13:00:43;;;;;;;3.05;1.25;;;18.10;63.00;;;;;;5117647;28;20042;-88
2021/09/25 13:03:11;;;;;;;2.75;1.45;;;17.90;63.50;;;;;;5098084;28;20040;-87
2021/09/25 13:05:37;;;;;;;4.50;1.65;;;17.70;64.80;;;;;;5115384;28;20063;-88
2021/09/25 13:08:15;;;;;;;2.35;1.13;;;17.50;64.60;;;;;;5096892;28;20071;-88
2021/09/25 13:10:51;;;;;;;2.22;1.50;;;17.40;65.10;;;;;;5096620;28;20038;-88
2021/09/25 13:13:18;;;;;;;2.65;1.33;;;17.30;65.70;;;;;;5097686;28;20035;-89
2021/09/25 13:15:45;;;;;;;2.92;1.33;;;17.30;66.10;;;;;;5097619;28;20138;-91
2021/09/25 13:18:11;;;;;;;2.08;1.25;;;17.40;66.50;;;;;;5096950;28;20028;-90
2021/09/25 13:24:02;;;;;;;2.33;1.45;;;18.30;64.40;;;;;;5114783;28;20030;-89
2021/09/25 13:26:29;;;;;;;4.13;1.60;;;18.80;63.70;;;;;;5096489;28;20035;-89
2021/09/25 13:28:55;;;;;;;2.95;1.42;;;19.40;62.60;;;;;;5096737;28;20042;-88
2021/09/25 13:31:20;;;;;;;1.80;1.42;;;19.90;61.00;;;;;;5115094;28;20114;-89
2021/09/25 13:33:46;;;;;;;2.40;1.27;;;20.10;59.60;;;;;;5102274;28;20031;-88
2021/09/25 13:36:12;;;;;;;2.72;1.20;;;20.00;59.60;;;;;;5101542;28;20127;-87
2021/09/25 13:38:46;;;;;;;2.17;1.40;;;19.70;60.00;;;;;;5103576;28;20027;-91
2021/09/25 13:41:34;;;;;;;2.65;1.55;;;19.30;60.50;;;;;;5099088;28;20130;-89
2021/09/25 13:43:59;;;;;;;2.80;1.65;;;18.90;61.50;;;;;;5096885;28;20472;-89
2021/09/25 13:46:25;;;;;;;3.70;1.75;;;18.60;62.10;;;;;;5096261;28;20051;-90
2021/09/25 13:48:51;;;;;;;4.47;1.77;;;18.20;63.10;;;;;;5096429;28;20030;-90
2021/09/25 13:51:19;;;;;;;2.80;1.55;;;18.00;63.70;;;;;;5095446;28;20036;-89
2021/09/25 13:53:45;;;;;;;2.65;1.55;;;17.80;64.30;;;;;;5096841;28;20353;-88
2021/09/25 13:56:11;;;;;;;3.28;1.30;;;17.60;64.90;;;;;;5101085;28;20024;-88
2021/09/25 13:58:36;;;;;;;6.85;1.80;;;17.50;65.30;;;;;;5100484;28;20518;-89
2021/09/25 14:01:04;;;;;;;3.90;2.10;;;17.30;65.50;;;;;;5099896;28;20123;-89
2021/09/25 14:03:30;;;;;;;2.65;1.67;;;17.10;65.90;;;;;;5100290;28;20181;-88
2021/09/25 14:05:57;;;;;;;3.05;1.38;;;17.00;66.40;;;;;;5100378;28;20506;-89
2021/09/25 14:08:23;;;;;;;3.78;1.60;;;16.80;66.80;;;;;;5100778;28;20039;-89
2021/09/25 14:10:48;;;;;;;3.42;1.25;;;16.70;67.30;;;;;;5099983;28;20384;-89
2021/09/25 14:13:14;;;;;;;2.92;1.40;;;16.60;67.70;;;;;;5118593;28;20024;-88
2021/09/25 14:15:43;;;;;;;2.35;1.45;;;16.50;67.80;;;;;;5099514;28;20485;-88
2021/09/25 14:18:10;;;;;;;3.72;1.50;;;16.50;68.30;;;;;;5100159;28;20469;-90
2021/09/25 14:20:41;;;;;;;3.17;1.48;;;16.40;68.60;;;;;;5100869;28;20050;-88
2021/09/25 14:23:11;;;;;;;2.17;1.35;;;16.30;68.70;;;;;;5102802;28;20032;-88
2021/09/25 14:25:41;;;;;;;3.05;1.70;;;16.30;69.00;;;;;;5101438;28;20039;-89
2021/09/25 14:28:08;;;;;;;3.60;1.67;;;16.20;69.10;;;;;;5100076;28;20451;-89
2021/09/25 14:30:35;;;;;;;4.60;1.80;;;16.20;69.30;;;;;;5099743;28;20097;-88
2021/09/25 14:33:05;;;;;;;2.83;1.60;;;16.10;69.50;;;;;;5084510;28;20032;-93
2021/09/25 14:35:31;;;;;;;4.35;2.30;;;16.10;69.60;;;;;;5082049;28;20040;-95
2021/09/25 14:37:57;;;;;;;17.20;10.15;;;16.10;69.80;;;;;;5107321;28;20114;-93
2021/09/25 14:40:23;;;;;;;14.80;8.88;;;16.10;70.00;;;;;;5121053;28;20155;-90
2021/09/25 14:42:49;;;;;;;10.23;6.13;;;16.10;70.20;;;;;;5108008;28;20031;-91
2021/09/25 14:45:16;;;;;;;7.20;3.80;;;16.10;70.70;;;;;;5122242;28;20051;-93
2021/09/25 14:47:41;;;;;;;6.25;3.28;;;16.30;70.30;;;;;;5126075;28;20412;-95
2021/09/25 14:50:08;;;;;;;5.65;2.65;;;16.40;69.80;;;;;;5123578;28;20114;-90
2021/09/25 14:52:34;;;;;;;3.38;1.80;;;16.40;69.60;;;;;;5077025;28;20150;-86
2021/09/25 14:55:00;;;;;;;4.40;1.80;;;16.40;69.80;;;;;;5078458;28;20475;-87
2021/09/25 14:57:26;;;;;;;9.57;6.00;;;16.40;69.80;;;;;;5096481;28;20119;-90
2021/09/25 14:59:53;;;;;;;6.18;3.83;;;16.30;70.00;;;;;;5105066;28;20032;-89
2021/09/25 15:02:25;;;;;;;6.25;3.05;;;16.40;70.10;;;;;;5099640;28;20126;-89
2021/09/25 15:04:52;;;;;;;3.70;2.30;;;16.30;69.90;;;;;;5099718;28;20043;-89
2021/09/25 15:07:18;;;;;;;4.05;2.10;;;16.30;70.00;;;;;;5098861;28;20040;-93
2021/09/25 15:09:44;;;;;;;5.72;1.90;;;16.20;70.20;;;;;;5099289;28;20031;-88
2021/09/25 15:12:11;;;;;;;3.08;1.80;;;16.20;70.40;;;;;;5099989;28;20032;-92
2021/09/25 15:14:37;;;;;;;3.35;1.55;;;16.10;70.50;;;;;;5118197;28;20046;-91
2021/09/25 15:17:03;;;;;;;2.78;1.60;;;16.10;70.70;;;;;;5101135;28;20118;-90
2021/09/25 15:19:29;;;;;;;2.47;1.50;;;16.00;70.80;;;;;;5117930;28;20396;-91
2021/09/25 15:21:55;;;;;;;2.80;1.35;;;15.90;71.00;;;;;;5118145;28;20059;-88
2021/09/25 15:24:20;;;;;;;14.30;7.60;;;15.90;71.20;;;;;;5111767;28;20036;-86
2021/09/25 15:26:47;;;;;;;30.08;19.55;;;15.80;71.30;;;;;;5097571;28;20032;-91
2021/09/25 15:29:13;;;;;;;17.45;11.55;;;15.80;71.60;;;;;;5098114;28;20055;-87
2021/09/25 15:31:38;;;;;;;10.45;6.32;;;15.70;71.70;;;;;;5113848;28;20482;-88
2021/09/25 15:34:04;;;;;;;9.05;5.20;;;15.70;71.90;;;;;;5079018;28;20050;-87
2021/09/25 15:36:30;;;;;;;5.97;3.35;;;15.60;72.10;;;;;;5093390;28;20040;-90
2021/09/25 15:38:56;;;;;;;8.32;2.53;;;15.60;72.30;;;;;;5093112;28;20024;-89
2021/09/25 15:41:23;;;;;;;4.03;2.33;;;15.50;72.40;;;;;;5074832;28;20067;-89
2021/09/25 15:43:51;;;;;;;3.60;1.80;;;15.50;72.60;;;;;;5101507;28;20032;-89
2021/09/25 15:46:17;;;;;;;3.30;1.98;;;15.40;72.70;;;;;;5092762;28;20608;-89
2021/09/25 15:48:43;;;;;;;6.30;1.73;;;15.40;73.00;;;;;;5102969;28;20039;-92
2021/09/25 15:51:08;;;;;;;3.42;1.40;;;15.30;73.10;;;;;;5091514;28;20093;-89
2021/09/25 15:53:34;;;;;;;1.88;1.20;;;15.30;73.20;;;;;;5097573;28;20042;-87